Time;durP1;ratioP1;P1;durP2;ratioP2;P2;SDS_P1;SDS_P2;PMS_P1;PMS_P2;Temp;Humidity;BMP_temperature;BMP_pressure;BME280_temperature;BME280_humidity;BME280_pressure;Samples;Min_cycle;Max_cycle;Signal;HPM_P1;HPM_P2
2021/10/23 00:05:13;;;;;;;4.97;1.00;;;;;;;7.84;61.90;99028.34;4358932;80;28472;-82
2021/10/23 00:11:14;;;;;;;4.42;1.15;;;;;;;7.78;62.95;99047.92;4378000;79;28503;-81
2021/10/23 00:17:16;;;;;;;4.40;1.00;;;;;;;7.78;62.77;99064.82;4462555;78;28457;-81
2021/10/23 00:23:17;;;;;;;4.28;1.22;;;;;;;7.83;63.07;99064.69;4382199;80;28520;-82
2021/10/23 00:29:18;;;;;;;4.45;1.35;;;;;;;7.85;62.95;99063.95;4381909;81;28438;-82
2021/10/23 00:35:20;;;;;;;3.52;1.07;;;;;;;7.90;63.33;99072.19;4372268;80;28534;-82
2021/10/23 00:41:22;;;;;;;4.28;1.22;;;;;;;8.01;63.00;99078.20;4382281;79;28519;-81
2021/10/23 00:47:23;;;;;;;7.92;1.57;;;;;;;8.11;62.25;99080.41;4399404;80;28475;-79
2021/10/23 00:53:25;;;;;;;3.62;1.20;;;;;;;8.14;62.90;99071.13;4395169;81;28540;-82
2021/10/23 00:59:27;;;;;;;5.30;1.25;;;;;;;8.00;63.27;99073.05;4373943;81;28511;-81
2021/10/23 01:05:28;;;;;;;3.52;1.10;;;;;;;8.00;63.76;99087.78;4383181;80;28450;-79
2021/10/23 01:11:30;;;;;;;4.30;1.10;;;;;;;7.93;64.43;99089.15;4376624;80;28473;-81
2021/10/23 01:17:31;;;;;;;4.00;1.07;;;;;;;7.93;64.72;99115.42;4345457;80;28473;-82
2021/10/23 01:23:32;;;;;;;4.37;1.15;;;;;;;7.87;65.93;99107.41;4436552;80;28478;-81
2021/10/23 01:29:33;;;;;;;3.95;1.42;;;;;;;7.80;66.20;99124.31;4413974;80;28945;-82
2021/10/23 01:35:37;;;;;;;3.98;1.07;;;;;;;7.71;67.46;99140.29;4338540;80;28489;-81
2021/10/23 01:41:39;;;;;;;4.83;1.20;;;;;;;7.77;67.65;99141.30;4385659;80;28453;-82
2021/10/23 01:47:42;;;;;;;3.55;1.05;;;;;;;7.83;68.64;99152.52;4393080;81;28500;-81
2021/10/23 01:53:43;;;;;;;4.17;1.07;;;;;;;7.74;69.07;99156.45;4394229;80;28520;-80
2021/10/23 01:59:44;;;;;;;3.92;1.27;;;;;;;7.57;70.97;99164.10;4358271;81;28511;-80
2021/10/23 02:05:46;;;;;;;4.97;1.10;;;;;;;7.44;72.51;99177.78;4300760;82;28482;-80
2021/10/23 02:11:47;;;;;;;2.70;1.20;;;;;;;7.38;73.83;99189.33;4338638;82;28460;-80
2021/10/23 02:17:48;;;;;;;2.50;1.25;;;;;;;7.34;74.73;99202.28;4390703;81;28580;-81
2021/10/23 02:23:50;;;;;;;3.75;1.20;;;;;;;7.24;75.69;99192.51;4322310;81;28508;-81
2021/10/23 02:29:51;;;;;;;2.77;1.00;;;;;;;7.28;76.36;99226.36;4362620;81;28531;-80
2021/10/23 02:35:52;;;;;;;3.55;1.20;;;;;;;7.32;79.49;99227.08;4398364;80;28453;-79
2021/10/23 02:41:54;;;;;;;3.75;1.20;;;;;;;7.38;79.70;99232.92;4371700;81;28505;-80
2021/10/23 02:47:55;;;;;;;3.22;1.15;;;;;;;7.28;83.59;99239.20;4361754;82;28477;-80
2021/10/23 02:53:56;;;;;;;6.08;1.42;;;;;;;7.16;84.55;99258.22;4341674;82;28461;-80
2021/10/23 02:59:57;;;;;;;5.87;1.20;;;;;;;7.04;84.58;99260.16;4363134;81;28574;-80
2021/10/23 03:05:59;;;;;;;4.72;1.45;;;;;;;6.94;86.37;99269.91;4392060;79;28503;-81
2021/10/23 03:12:00;;;;;;;2.98;1.07;;;;;;;6.79;90.51;99292.78;4384943;81;28470;-80
2021/10/23 03:18:01;;;;;;;6.62;1.30;;;;;;;6.68;94.04;99293.36;4399728;80;28469;-82
2021/10/23 03:24:04;;;;;;;4.22;0.98;;;;;;;6.64;94.42;99300.94;4363822;81;28500;-83
2021/10/23 03:30:07;;;;;;;3.92;1.07;;;;;;;6.55;95.84;99303.47;4379044;81;28455;-81
2021/10/23 03:36:08;;;;;;;4.35;1.30;;;;;;;6.48;98.23;99316.80;4379381;81;28477;-81
2021/10/23 03:42:09;;;;;;;4.47;1.30;;;;;;;6.44;100.00;99324.88;4386145;80;28446;-81
2021/10/23 03:48:11;;;;;;;5.12;1.20;;;;;;;6.34;100.00;99319.05;4385835;81;28532;-81
2021/10/23 03:54:12;;;;;;;4.17;1.32;;;;;;;6.22;100.00;99340.97;4346680;81;28484;-81
2021/10/23 04:00:14;;;;;;;3.55;0.90;;;;;;;6.15;100.00;99349.46;4364666;81;28509;-82
2021/10/23 04:06:17;;;;;;;4.17;1.15;;;;;;;6.06;100.00;99349.29;4382812;80;28509;-82
2021/10/23 04:12:18;;;;;;;4.05;1.27;;;;;;;6.01;100.00;99353.84;4369321;80;28551;-82
2021/10/23 04:18:19;;;;;;;5.28;1.20;;;;;;;6.03;100.00;99374.52;4333255;81;28619;-83
2021/10/23 04:24:21;;;;;;;3.47;0.70;;;;;;;5.95;100.00;99378.13;4360113;81;28511;-82
2021/10/23 04:30:22;;;;;;;4.80;0.80;;;;;;;5.90;100.00;99381.05;4359540;81;28457;-82
2021/10/23 04:36:23;;;;;;;5.00;0.80;;;;;;;5.90;100.00;99389.88;4396396;81;28489;-82
2021/10/23 04:42:25;;;;;;;4.33;1.70;;;;;;;5.86;100.00;99403.30;4376406;81;28485;-82
2021/10/23 04:48:27;;;;;;;4.25;1.20;;;;;;;6.02;100.00;99411.58;4378700;80;28479;-81
2021/10/23 04:54:28;;;;;;;5.12;1.22;;;;;;;6.14;100.00;99407.36;4378040;80;28466;-80
2021/10/23 05:00:30;;;;;;;2.62;1.05;;;;;;;6.26;100.00;99413.01;4384031;81;28555;-80
2021/10/23 05:06:31;;;;;;;4.17;1.10;;;;;;;6.32;100.00;99423.42;4431478;80;28980;-81
2021/10/23 05:12:32;;;;;;;4.95;0.88;;;;;;;6.27;100.00;99437.36;4380626;81;28466;-83
2021/10/23 05:18:33;;;;;;;3.85;0.90;;;;;;;6.18;100.00;99443.84;4373970;81;28505;-81
2021/10/23 05:24:35;;;;;;;5.00;1.17;;;;;;;6.27;100.00;99449.38;4411792;80;28473;-78
2021/10/23 05:30:37;;;;;;;4.25;1.42;;;;;;;6.18;100.00;99455.02;4382928;81;28430;-79
2021/10/23 05:36:38;;;;;;;4.58;1.25;;;;;;;5.99;100.00;99455.45;4337035;81;28508;-81
2021/10/23 05:42:39;;;;;;;7.10;1.27;;;;;;;5.96;100.00;99463.84;4447612;80;28451;-79
2021/10/23 05:48:41;;;;;;;4.78;1.10;;;;;;;5.92;100.00;99473.23;4368187;81;28505;-81
2021/10/23 05:54:42;;;;;;;5.85;1.22;;;;;;;5.89;100.00;99477.63;4371055;81;28468;-81
2021/10/23 06:00:49;;;;;;;2.35;0.90;;;;;;;5.91;100.00;99482.26;4352118;81;28441;-81
2021/10/23 06:06:46;;;;;;;3.35;0.88;;;;;;;5.89;100.00;99489.64;4353443;81;28450;-81
2021/10/23 06:12:49;;;;;;;4.95;1.27;;;;;;;6.00;100.00;99499.00;4352475;81;28478;-79
2021/10/23 06:18:50;;;;;;;8.15;1.37;;;;;;;6.19;100.00;99513.58;4382186;81;28491;-82
2021/10/23 06:24:52;;;;;;;6.60;1.30;;;;;;;6.48;100.00;99520.30;4336881;80;28514;-81
2021/10/23 06:30:53;;;;;;;5.22;1.30;;;;;;;6.53;100.00;99528.05;4312818;80;28484;-84
2021/10/23 06:36:55;;;;;;;4.20;1.05;;;;;;;6.55;100.00;99527.87;4315030;81;28458;-83
2021/10/23 06:42:56;;;;;;;5.90;2.30;;;;;;;6.55;100.00;99543.91;4327331;80;28530;-82
2021/10/23 06:48:58;;;;;;;4.35;1.37;;;;;;;6.67;100.00;99558.39;4370620;80;28537;-81
2021/10/23 06:54:59;;;;;;;4.53;1.47;;;;;;;6.73;100.00;99564.00;4426443;79;28460;-81
2021/10/23 07:01:01;;;;;;;4.37;1.25;;;;;;;6.80;100.00;99572.38;4363786;80;28505;-81
2021/10/23 07:07:02;;;;;;;5.20;2.20;;;;;;;6.97;100.00;99574.75;4375215;80;28457;-78
2021/10/23 07:13:03;;;;;;;5.35;1.40;;;;;;;7.14;97.50;99577.98;4297756;81;28601;-78
2021/10/23 07:19:05;;;;;;;8.10;1.27;;;;;;;7.31;96.76;99579.00;4385999;80;28471;-80
2021/10/23 07:25:07;;;;;;;5.70;1.35;;;;;;;7.26;91.68;99576.91;4283812;81;28506;-78
2021/10/23 07:31:08;;;;;;;3.85;1.50;;;;;;;7.40;94.79;99577.83;4356248;80;28614;-81
2021/10/23 07:37:10;;;;;;;4.92;1.40;;;;;;;7.54;90.23;99606.30;4346885;80;28463;-82
2021/10/23 07:43:14;;;;;;;4.22;1.25;;;;;;;7.63;89.07;99597.62;4349362;80;28527;-79
2021/10/23 07:49:16;;;;;;;14.20;1.50;;;;;;;7.77;88.28;99595.00;4331323;80;28469;-83
2021/10/23 07:55:17;;;;;;;4.55;1.30;;;;;;;7.85;87.92;99597.51;4333440;80;28434;-79
2021/10/23 08:01:18;;;;;;;2.67;1.00;;;;;;;7.88;86.63;99591.75;4295812;81;28556;-80
2021/10/23 08:07:21;;;;;;;3.77;1.10;;;;;;;8.15;83.41;99609.27;4372446;80;28471;-83
2021/10/23 08:13:22;;;;;;;6.08;1.15;;;;;;;8.25;83.19;99607.53;4382312;78;28482;-80
2021/10/23 08:19:24;;;;;;;4.00;1.00;;;;;;;8.36;82.67;99604.79;4387319;80;28493;-77
2021/10/23 08:25:25;;;;;;;3.98;1.25;;;;;;;8.36;81.83;99623.02;4361664;80;28527;-79
2021/10/23 08:31:27;;;;;;;7.72;1.57;;;;;;;8.48;81.25;99633.98;4350628;80;28442;-77
2021/10/23 08:37:30;;;;;;;6.75;1.42;;;;;;;8.61;81.13;99628.36;4337734;80;28497;-77
2021/10/23 08:43:34;;;;;;;7.87;1.45;;;;;;;8.63;80.10;99626.30;4354196;80;28553;-77
2021/10/23 08:49:36;;;;;;;7.08;1.30;;;;;;;8.97;78.36;99635.72;4379284;80;28513;-79
2021/10/23 08:55:37;;;;;;;5.58;1.07;;;;;;;9.35;74.10;99647.17;4343238;80;28445;-77
2021/10/23 09:01:39;;;;;;;5.35;1.10;;;;;;;9.51;72.89;99641.89;4352594;80;28534;-77
2021/10/23 09:07:44;;;;;;;7.37;1.07;;;;;;;9.65;71.84;99651.25;4345361;80;28589;-78
2021/10/23 09:13:45;;;;;;;4.45;1.20;;;;;;;9.65;70.75;99656.11;4355572;80;28523;-79
2021/10/23 09:19:50;;;;;;;8.15;1.27;;;;;;;9.65;69.59;99653.94;4343747;81;28497;-77
2021/10/23 09:25:51;;;;;;;5.97;1.20;;;;;;;9.79;69.42;99655.57;4340597;80;28539;-78
2021/10/23 09:31:55;;;;;;;5.33;1.50;;;;;;;9.69;69.37;99660.02;4344775;80;28524;-78
2021/10/23 09:38:00;;;;;;;4.28;1.35;;;;;;;9.44;71.62;99659.84;4352677;80;28496;-78
2021/10/23 09:44:16;;;;;;;7.70;1.30;;;;;;;9.24;72.28;99668.73;4329036;80;28537;-78
2021/10/23 09:50:21;;;;;;;6.87;1.72;;;;;;;9.31;72.16;99677.62;4365192;80;28469;-79
2021/10/23 09:56:27;;;;;;;3.40;1.20;;;;;;;9.45;71.07;99693.20;4373421;81;28448;-81
2021/10/23 10:02:29;;;;;;;5.53;1.20;;;;;;;9.96;68.76;99689.50;4361421;80;28511;-80
2021/10/23 10:08:30;;;;;;;6.20;1.45;;;;;;;10.14;67.54;99679.42;4371000;80;28462;-80
2021/10/23 10:14:35;;;;;;;5.37;1.30;;;;;;;10.23;67.47;99702.84;4458045;78;28480;-78
2021/10/23 10:20:37;;;;;;;9.10;1.57;;;;;;;10.13;65.78;99707.83;4357521;80;28532;-76
2021/10/23 10:26:39;;;;;;;8.60;1.55;;;;;;;10.03;65.97;99697.54;4378469;80;28515;-77
2021/10/23 10:32:42;;;;;;;5.00;1.65;;;;;;;10.14;64.55;99696.88;4364594;80;28501;-80
2021/10/23 10:38:57;;;;;;;7.25;1.52;;;;;;;10.19;63.75;99702.43;4350538;80;28440;-79
2021/10/23 10:44:53;;;;;;;9.40;1.67;;;;;;;10.36;63.72;99701.13;4425329;80;28452;-78
2021/10/23 10:51:01;;;;;;;5.00;1.25;;;;;;;10.45;63.68;99724.08;4336660;80;28508;-78
2021/10/23 10:57:05;;;;;;;8.23;1.77;;;;;;;10.43;63.03;99703.31;4409526;79;28489;-80
2021/10/23 11:03:45;;;;;;;8.28;1.57;;;;;;;10.68;62.71;99710.11;4367477;79;28450;-77
2021/10/23 11:09:46;;;;;;;7.70;1.87;;;;;;;10.64;61.16;99711.59;4366145;80;28499;-76
2021/10/23 11:15:48;;;;;;;5.45;1.70;;;;;;;10.50;63.85;99703.27;4417278;79;28436;-84
2021/10/23 11:22:06;;;;;;;8.30;1.77;;;;;;;10.37;63.83;99716.25;4374466;79;28457;-80
2021/10/23 11:28:10;;;;;;;10.53;1.87;;;;;;;10.40;64.24;99707.75;4401816;79;28543;-80
2021/10/23 11:34:24;;;;;;;6.53;1.65;;;;;;;10.35;66.74;99711.58;4431786;79;28494;-78
2021/10/23 11:40:25;;;;;;;7.55;2.15;;;;;;;10.32;68.61;99723.06;4399300;79;28554;-82
2021/10/23 11:46:27;;;;;;;5.95;2.20;;;;;;;10.29;68.13;99719.47;4425792;79;28457;-81
2021/10/23 11:52:33;;;;;;;8.88;1.90;;;;;;;10.24;71.58;99722.48;4414589;79;28492;-78
2021/10/23 11:58:39;;;;;;;8.20;2.15;;;;;;;10.30;70.83;99725.15;4426902;79;28490;-78
2021/10/23 12:04:40;;;;;;;7.42;1.87;;;;;;;10.19;71.38;99726.61;4423151;79;28436;-77
2021/10/23 12:11:10;;;;;;;9.33;2.10;;;;;;;10.06;70.82;99736.06;4405876;79;28510;-85
2021/10/23 12:17:12;;;;;;;6.45;2.10;;;;;;;9.98;72.48;99733.59;4406202;79;28488;-82
2021/10/23 12:23:15;;;;;;;8.63;2.17;;;;;;;9.66;77.70;99727.57;4365199;80;28504;-86
2021/10/23 12:29:18;;;;;;;9.00;2.35;;;;;;;10.35;74.96;99739.80;4341852;80;28563;-82
2021/10/23 12:35:22;;;;;;;8.75;2.22;;;;;;;10.50;71.72;99726.13;4371179;80;28520;-84
2021/10/23 12:41:24;;;;;;;8.58;2.00;;;;;;;10.26;70.94;99731.16;4361069;80;28472;-81
2021/10/23 12:47:25;;;;;;;6.35;2.17;;;;;;;10.27;71.70;99722.89;4345207;82;28484;-82
2021/10/23 12:53:26;;;;;;;6.30;2.22;;;;;;;10.17;71.33;99726.01;4367377;80;28461;-83
2021/10/23 12:59:28;;;;;;;10.28;2.77;;;;;;;10.12;71.40;99733.05;4349453;82;28461;-82
2021/10/23 13:05:29;;;;;;;7.75;2.62;;;;;;;9.94;75.01;99745.28;4365501;81;28487;-82
2021/10/23 13:11:31;;;;;;;5.35;2.05;;;;;;;9.38;86.78;99796.23;4379611;79;28497;-83
2021/10/23 13:17:32;;;;;;;3.90;1.10;;;;;;;8.54;100.00;99821.33;4293069;81;28528;-80
2021/10/23 13:23:35;;;;;;;3.45;1.20;;;;;;;8.61;100.00;99790.53;4265651;81;28446;-81
2021/10/23 13:29:36;;;;;;;4.97;1.15;;;;;;;9.00;100.00;99780.13;4320397;81;28495;-81
2021/10/23 13:35:38;;;;;;;5.85;1.12;;;;;;;9.04;100.00;99779.53;4316901;81;28465;-81
2021/10/23 13:41:39;;;;;;;6.47;1.60;;;;;;;8.88;100.00;99791.45;4271634;81;28485;-81
2021/10/23 13:47:42;;;;;;;7.58;1.60;;;;;;;8.95;100.00;99796.02;4343523;81;28613;-80
2021/10/23 13:53:46;;;;;;;8.28;1.72;;;;;;;8.85;100.00;99791.86;4279883;82;28482;-80
2021/10/23 13:59:48;;;;;;;5.55;1.85;;;;;;;8.41;100.00;99785.87;4266482;81;28484;-79
2021/10/23 14:05:50;;;;;;;5.15;1.80;;;;;;;8.34;100.00;99787.70;4328000;81;28455;-79
2021/10/23 14:11:51;;;;;;;8.03;2.15;;;;;;;7.91;100.00;99780.63;4396576;78;28523;-85
2021/10/23 14:17:52;;;;;;;6.30;2.40;;;;;;;7.84;100.00;99789.96;4398835;79;28502;-83
2021/10/23 14:23:55;;;;;;;7.47;2.20;;;;;;;7.68;100.00;99800.44;4386637;78;28515;-82
2021/10/23 14:30:01;;;;;;;7.22;2.10;;;;;;;7.73;100.00;99815.39;4379359;79;28434;-83
2021/10/23 14:36:03;;;;;;;;;;;;;;;7.75;100.00;99824.05;4374329;79;28466;-81
2021/10/23 14:42:04;;;;;;;6.70;1.80;;;;;;;7.65;100.00;99827.07;4373073;78;20207;-84
2021/10/23 14:48:06;;;;;;;7.37;1.95;;;;;;;7.66;100.00;99850.66;4422303;80;28477;-85
2021/10/23 14:54:07;;;;;;;5.83;2.10;;;;;;;7.54;100.00;99865.05;4321029;81;28513;-83
2021/10/23 15:00:10;;;;;;;5.15;1.90;;;;;;;7.43;100.00;99870.38;4329884;80;28546;-87
2021/10/23 15:06:11;;;;;;;6.03;2.67;;;;;;;7.35;100.00;99876.69;4354940;80;28544;-84
2021/10/23 15:12:15;;;;;;;7.80;2.30;;;;;;;7.34;100.00;99891.58;4373565;80;28498;-81
2021/10/23 15:18:16;;;;;;;6.87;2.35;;;;;;;7.27;100.00;99879.48;4300658;81;28460;-85
2021/10/23 15:24:18;;;;;;;7.83;2.58;;;;;;;7.29;100.00;99902.87;4363522;81;28503;-81
2021/10/23 15:30:20;;;;;;;7.65;2.45;;;;;;;7.27;100.00;99910.77;4346330;81;28535;-80
2021/10/23 15:36:23;;;;;;;7.70;2.45;;;;;;;7.24;100.00;99922.16;4343272;81;28552;-81
2021/10/23 15:42:24;;;;;;;6.20;2.17;;;;;;;7.30;100.00;99931.78;4427917;80;28472;-84
2021/10/23 15:48:26;;;;;;;6.17;2.12;;;;;;;7.37;100.00;99939.38;4363356;80;28449;-81
2021/10/23 15:54:28;;;;;;;10.48;2.60;;;;;;;7.17;100.00;99964.04;4334371;80;28479;-81
2021/10/23 16:00:30;;;;;;;12.80;3.20;;;;;;;7.22;100.00;99966.97;4245269;81;28505;-80
2021/10/23 16:06:31;;;;;;;9.60;3.30;;;;;;;7.24;100.00;99979.67;4343653;80;28456;-82
2021/10/23 16:12:33;;;;;;;9.95;4.00;;;;;;;7.20;100.00;100003.78;4394589;78;28500;-81
2021/10/23 16:18:34;;;;;;;10.65;3.50;;;;;;;7.23;100.00;100033.34;4374995;80;28535;-81
2021/10/23 16:24:36;;;;;;;6.67;2.85;;;;;;;7.06;100.00;100048.22;4353333;80;28507;-82
2021/10/23 16:30:38;;;;;;;5.90;1.70;;;;;;;6.54;100.00;100049.36;4380524;80;28489;-85
2021/10/23 16:36:42;;;;;;;4.55;1.35;;;;;;;6.49;100.00;100059.77;4363628;80;28446;-81
2021/10/23 16:42:43;;;;;;;5.40;1.20;;;;;;;6.49;100.00;100049.58;4395545;80;28460;-83
2021/10/23 16:48:45;;;;;;;3.50;1.42;;;;;;;6.58;100.00;100046.35;4384103;80;28511;-83
2021/10/23 16:54:46;;;;;;;3.27;1.32;;;;;;;6.57;100.00;100042.84;4341500;81;28444;-83
2021/10/23 17:00:48;;;;;;;6.12;1.90;;;;;;;6.60;100.00;100042.98;4431825;78;28571;-83
2021/10/23 17:06:49;;;;;;;10.38;3.10;;;;;;;6.60;100.00;100054.48;4372230;80;28429;-85
2021/10/23 17:12:51;;;;;;;6.83;3.25;;;;;;;6.51;100.00;100052.41;4412132;79;28521;-86
2021/10/23 17:18:52;;;;;;;11.22;3.95;;;;;;;6.31;100.00;100067.25;4421179;79;28739;-84
2021/10/23 17:24:53;;;;;;;12.10;4.25;;;;;;;6.19;100.00;100081.50;4429184;79;28504;-84
2021/10/23 17:30:58;;;;;;;11.08;4.40;;;;;;;6.09;100.00;100092.42;4429706;79;28483;-86
2021/10/23 17:36:59;;;;;;;12.53;4.75;;;;;;;6.03;100.00;100098.45;4424822;79;28456;-85
2021/10/23 17:43:00;;;;;;;11.73;5.20;;;;;;;5.90;100.00;100103.83;4410788;79;28453;-88
2021/10/23 17:49:05;;;;;;;21.90;7.30;;;;;;;5.83;100.00;100117.03;4340446;80;28467;-86
2021/10/23 17:55:07;;;;;;;24.63;9.53;;;;;;;5.75;100.00;100129.07;4330622;80;28518;-85
2021/10/23 18:01:09;;;;;;;22.30;9.38;;;;;;;5.59;100.00;100125.95;4367048;79;28466;-87
2021/10/23 18:07:11;;;;;;;23.02;8.70;;;;;;;5.47;100.00;100125.52;4408117;79;28433;-85
2021/10/23 18:13:14;;;;;;;26.20;10.08;;;;;;;5.37;100.00;100127.54;4433506;78;28483;-84
2021/10/23 18:19:20;;;;;;;21.07;8.55;;;;;;;5.47;100.00;100140.19;4434455;78;28453;-88
2021/10/23 18:25:23;;;;;;;24.18;10.00;;;;;;;5.27;100.00;100159.70;4414134;78;28468;-81
2021/10/23 18:31:25;;;;;;;22.95;10.88;;;;;;;5.19;100.00;100153.89;4392784;79;28461;-81
2021/10/23 18:37:26;;;;;;;23.65;10.50;;;;;;;5.01;100.00;100162.06;4384936;79;28428;-80
2021/10/23 18:43:27;;;;;;;20.02;8.88;;;;;;;4.91;100.00;100161.41;4375655;79;28432;-83
2021/10/23 18:49:29;;;;;;;25.55;10.53;;;;;;;4.85;100.00;100162.38;4389075;79;28513;-79
2021/10/23 18:55:32;;;;;;;22.25;10.18;;;;;;;4.89;100.00;100166.89;4366227;79;28457;-80
2021/10/23 19:01:33;;;;;;;26.05;11.00;;;;;;;4.89;100.00;100180.21;4400588;79;28563;-80
2021/10/23 19:07:37;;;;;;;25.32;11.53;;;;;;;4.85;100.00;100184.22;4392052;80;28524;-80
2021/10/23 19:13:38;;;;;;;27.37;11.53;;;;;;;4.74;100.00;100193.35;4354853;80;28521;-81
2021/10/23 19:19:40;;;;;;;20.52;9.73;;;;;;;4.64;100.00;100200.17;4332096;80;28526;-80
2021/10/23 19:25:43;;;;;;;21.17;9.43;;;;;;;4.67;100.00;100214.97;4320489;80;28539;-84
2021/10/23 19:31:44;;;;;;;21.95;9.40;;;;;;;4.69;100.00;100214.34;4323306;80;28456;-81
2021/10/23 19:37:49;;;;;;;21.52;9.95;;;;;;;4.69;100.00;100227.66;4407645;79;28504;-79
2021/10/23 19:43:52;;;;;;;;;;;;;;;4.72;100.00;100236.13;4373136;80;28582;-79
2021/10/23 19:49:55;;;;;;;24.37;10.43;;;;;;;4.69;100.00;100236.47;4357686;80;20167;-81
2021/10/23 19:55:58;;;;;;;23.52;9.73;;;;;;;4.54;100.00;100238.92;4326132;80;28465;-82
2021/10/23 20:02:00;;;;;;;21.25;9.13;;;;;;;4.54;100.00;100252.24;4408396;79;28480;-80
2021/10/23 20:08:02;;;;;;;24.12;9.60;;;;;;;4.45;100.00;100261.20;4364328;80;28449;-80
2021/10/23 20:14:04;;;;;;;22.60;9.50;;;;;;;4.52;100.00;100270.70;4376672;79;28535;-79
2021/10/23 20:20:07;;;;;;;27.40;10.80;;;;;;;4.78;100.00;100275.95;4388834;78;28586;-81
2021/10/23 20:26:09;;;;;;;22.65;10.45;;;;;;;4.79;100.00;100281.64;4369100;78;28560;-79
2021/10/23 20:32:10;;;;;;;24.30;9.95;;;;;;;4.81;100.00;100288.12;4362977;80;28476;-80
2021/10/23 20:38:12;;;;;;;26.27;10.20;;;;;;;4.75;100.00;100297.59;4355150;80;28543;-82
2021/10/23 20:44:14;;;;;;;28.55;10.75;;;;;;;4.84;100.00;100301.95;4361011;78;28460;-79
2021/10/23 20:50:16;;;;;;;24.18;10.85;;;;;;;4.94;100.00;100311.13;4367810;78;28499;-81
2021/10/23 20:56:18;;;;;;;28.20;11.18;;;;;;;4.98;100.00;100312.48;4402855;78;28504;-82
2021/10/23 21:02:20;;;;;;;26.30;11.75;;;;;;;4.91;100.00;100314.64;4387384;78;28460;-81
2021/10/23 21:08:21;;;;;;;23.87;9.85;;;;;;;4.85;100.00;100324.13;4350381;80;29020;-80
2021/10/23 21:14:22;;;;;;;24.02;9.60;;;;;;;4.71;100.00;100323.72;4427641;78;28462;-81
2021/10/23 21:20:24;;;;;;;26.23;11.20;;;;;;;4.77;100.00;100337.41;4445785;78;28535;-81
2021/10/23 21:26:25;;;;;;;22.32;10.45;;;;;;;4.90;100.00;100343.11;4426612;78;28552;-79
2021/10/23 21:32:27;;;;;;;25.02;10.43;;;;;;;4.82;100.00;100351.92;4411573;78;28476;-78
2021/10/23 21:38:28;;;;;;;25.12;10.70;;;;;;;4.74;100.00;100354.55;4429359;78;28461;-80
2021/10/23 21:44:29;;;;;;;28.83;10.50;;;;;;;4.76;100.00;100359.73;4420457;78;28495;-79
2021/10/23 21:50:31;;;;;;;30.55;11.60;;;;;;;4.87;100.00;100368.25;4433292;79;28459;-79
2021/10/23 21:56:32;;;;;;;30.15;12.05;;;;;;;4.85;100.00;100371.58;4423979;78;28504;-79
2021/10/23 22:02:34;;;;;;;31.40;11.75;;;;;;;4.76;100.00;100371.72;4408882;78;28554;-79
2021/10/23 22:08:36;;;;;;;27.17;11.12;;;;;;;4.68;100.00;100377.82;4421913;78;28448;-78
2021/10/23 22:14:37;;;;;;;25.85;10.50;;;;;;;4.60;100.00;100376.81;4422998;78;28578;-80
2021/10/23 22:20:39;;;;;;;30.20;12.40;;;;;;;4.58;100.00;100385.94;4419910;78;28548;-81
2021/10/23 22:26:41;;;;;;;29.07;12.53;;;;;;;4.57;100.00;100385.09;4432338;78;28484;-80
2021/10/23 22:32:42;;;;;;;32.08;12.13;;;;;;;4.52;100.00;100393.22;4444015;78;28456;-81
2021/10/23 22:38:43;;;;;;;27.30;11.73;;;;;;;4.40;100.00;100396.16;4361303;80;28482;-80
2021/10/23 22:44:45;;;;;;;25.35;10.25;;;;;;;4.43;100.00;100393.20;4342558;80;28438;-80
2021/10/23 22:50:46;;;;;;;27.67;10.32;;;;;;;4.39;100.00;100395.82;4362880;80;28466;-80
2021/10/23 22:56:48;;;;;;;30.97;11.60;;;;;;;4.46;100.00;100405.34;4368235;80;28577;-79
2021/10/23 23:02:49;;;;;;;30.10;11.88;;;;;;;4.50;100.00;100405.39;4437855;78;28545;-80
2021/10/23 23:08:51;;;;;;;28.92;11.10;;;;;;;4.39;100.00;100411.80;4328533;80;28525;-81
2021/10/23 23:14:52;;;;;;;25.40;11.38;;;;;;;4.31;100.00;100413.06;4353621;80;28472;-80
2021/10/23 23:20:54;;;;;;;28.42;10.93;;;;;;;4.25;100.00;100412.38;4374085;80;28532;-81
2021/10/23 23:26:55;;;;;;;29.42;10.82;;;;;;;4.29;100.00;100415.06;4366618;80;28893;-80
2021/10/23 23:32:56;;;;;;;25.85;11.15;;;;;;;4.18;100.00;100422.82;4397801;78;28462;-79
2021/10/23 23:38:57;;;;;;;26.25;11.10;;;;;;;4.07;100.00;100420.41;4365426;80;28472;-80
2021/10/23 23:44:59;;;;;;;23.77;10.10;;;;;;;3.99;100.00;100431.31;4434654;78;28461;-79
2021/10/23 23:51:01;;;;;;;29.10;11.05;;;;;;;3.82;100.00;100432.16;4353740;80;28525;-79
2021/10/23 23:57:02;;;;;;;24.40;9.88;;;;;;;3.60;100.00;100441.78;4429285;78;28495;-78
